Terminal Aerodrome Forecast
Issued by NWS Wakefield, VA

Home | Current Version | Previous Version | Text Only | Print | Product List | Glossary On
Versions: 1 2 3 4 5 6 7 8 9 10 11 12 13 14
023
FTUS41 KAKQ 291138
TAFRIC
TAF
KRIC 291138Z 2912/3012 00000KT P6SM SCT002 BKN150
     FM291400 13003KT P6SM BKN025 BKN070 BKN250
     FM291600 10004KT P6SM -SHRA BKN030 OVC200
     FM291900 09005KT 4SM RA BR OVC025=

USA.gov is the U.S. government's official web portal to all federal, state and local government web resources and services.